Time;durP1;ratioP1;P1;durP2;ratioP2;P2;SDS_P1;SDS_P2;PMS_P1;PMS_P2;Temp;Humidity;BMP_temperature;BMP_pressure;BME280_temperature;BME280_humidity;BME280_pressure;Samples;Min_cycle;Max_cycle;Signal;HPM_P1;HPM_P2
2023/01/02 00:01:10;;;;;;;0.30;0.10;;;10.90;99.90;;;;;;6146553;23;20024;-89
2023/01/02 00:03:36;;;;;;;0.20;0.20;;;10.90;99.90;;;;;;6136980;23;20028;-89
2023/01/02 00:06:18;;;;;;;0.88;0.35;;;10.90;99.90;;;;;;6135846;23;20013;-89
2023/01/02 00:08:49;;;;;;;0.00;0.00;;;10.90;99.90;;;;;;6137806;23;20017;-89
2023/01/02 00:11:46;;;;;;;0.03;0.03;;;11.00;99.90;;;;;;6137232;23;20448;-88
2023/01/02 00:14:40;;;;;;;0.08;0.00;;;10.90;99.90;;;;;;6161381;23;20024;-89
2023/01/02 00:17:16;;;;;;;0.85;0.20;;;10.90;99.90;;;;;;6114995;23;20424;-89
2023/01/02 00:19:59;;;;;;;0.73;0.30;;;10.90;99.90;;;;;;6136949;23;20023;-89
2023/01/02 00:25:49;;;;;;;0.68;0.20;;;11.00;99.90;;;;;;6140572;23;20021;-89
2023/01/02 00:28:32;;;;;;;0.00;0.00;;;11.00;99.90;;;;;;6141639;23;20059;-90
2023/01/02 00:31:38;;;;;;;;;;;;;;;;;;;;;
2023/01/02 00:40:48;;;;;;;0.10;0.10;;;11.10;99.90;;;;;;6117972;23;20021;-90
2023/01/02 00:43:27;;;;;;;;;;;;;;;;;;;;;
2023/01/02 00:45:58;;;;;;;0.22;0.00;;;11.10;99.90;;;;;;6161413;23;20013;-89
2023/01/02 00:48:38;;;;;;;0.75;0.38;;;11.20;99.90;;;;;;6137759;23;20443;-90
2023/01/02 00:51:30;;;;;;;1.65;0.20;;;11.20;99.90;;;;;;6161142;23;20013;-89
2023/01/02 00:54:00;;;;;;;4.20;1.00;;;11.20;99.90;;;;;;6160101;23;20348;-90
2023/01/02 00:57:01;;;;;;;;;;;;;;;;;;;;;
2023/01/02 00:59:47;;;;;;;2.08;0.35;;;11.30;99.90;;;;;;6138148;23;20017;-90
2023/01/02 01:02:49;;;;;;;;;;;;;;;;;;;;;
2023/01/02 01:05:30;;;;;;;0.30;0.30;;;11.30;99.90;;;;;;6162078;23;20013;-90
2023/01/02 01:08:25;;;;;;;10.18;2.08;;;11.30;99.90;;;;;;6137064;23;20486;-90
2023/01/02 01:11:17;;;;;;;;;;;;;;;;;;;;;
2023/01/02 01:13:58;;;;;;;1.40;0.10;;;11.40;99.90;;;;;;6161108;23;20021;-90
2023/01/02 01:16:42;;;;;;;0.10;0.03;;;11.40;99.90;;;;;;6116761;23;20072;-89
2023/01/02 01:19:11;;;;;;;2.17;1.13;;;11.40;99.90;;;;;;6118833;23;20021;-90
2023/01/02 01:21:52;;;;;;;0.00;0.00;;;11.40;99.90;;;;;;6136101;23;20021;-90
2023/01/02 01:24:53;;;;;;;0.30;0.30;;;11.40;99.90;;;;;;6090244;23;20325;-90
2023/01/02 01:28:05;;;;;;;0.32;0.32;;;11.40;99.90;;;;;;6136075;23;20115;-90
2023/01/02 01:30:46;;;;;;;;;;;;;;;;;;;;;
2023/01/02 01:33:46;;;;;;;;;;;;;;;;;;;;;
2023/01/02 01:36:39;;;;;;;;;;;;;;;;;;;;;
2023/01/02 01:39:13;;;;;;;0.03;0.00;;;11.40;99.90;;;;;;6162630;23;20433;-90
2023/01/02 01:42:12;;;;;;;;;;;;;;;;;;;;;
2023/01/02 01:45:02;;;;;;;0.20;0.20;;;11.40;99.90;;;;;;6162799;23;20024;-89
2023/01/02 01:48:11;;;;;;;1.23;0.57;;;11.40;99.90;;;;;;6137835;23;20464;-90
2023/01/02 01:51:14;;;;;;;;;;;;;;;;;;;;;
2023/01/02 01:54:29;;;;;;;0.00;0.00;;;11.50;99.90;;;;;;6155024;23;20021;-89
2023/01/02 01:57:39;;;;;;;;;;;;;;;;;;;;;
2023/01/02 02:03:33;;;;;;;1.35;0.40;;;11.40;99.90;;;;;;6108128;23;20031;-90
2023/01/02 02:06:28;;;;;;;2.40;0.22;;;11.40;99.90;;;;;;6093581;23;20028;-90
2023/01/02 02:12:05;;;;;;;0.45;0.17;;;11.50;99.90;;;;;;6137472;23;19920;-89
2023/01/02 02:14:39;;;;;;;0.75;0.00;;;11.50;99.90;;;;;;6138673;23;20025;-90
2023/01/02 02:17:41;;;;;;;;;;;;;;;;;;;;;
2023/01/02 02:20:39;;;;;;;;;;;;;;;;;;;;;
2023/01/02 02:23:32;;;;;;;0.20;0.20;;;11.50;99.90;;;;;;6165516;23;20076;-89
2023/01/02 02:26:48;;;;;;;;;;;;;;;;;;;;;
2023/01/02 02:29:58;;;;;;;0.40;0.15;;;11.50;99.90;;;;;;6192154;23;20028;-89
2023/01/02 02:32:51;;;;;;;0.45;0.00;;;11.60;99.90;;;;;;6098195;23;20020;-89
2023/01/02 02:35:57;;;;;;;0.00;0.00;;;11.50;99.90;;;;;;6140845;23;20023;-89
2023/01/02 02:38:39;;;;;;;;;;;;;;;;;;;;;
2023/01/02 02:41:45;;;;;;;0.50;0.45;;;11.50;99.90;;;;;;6188339;23;20013;-88
2023/01/02 02:44:27;;;;;;;;;;;;;;;;;;;;;
2023/01/02 02:47:25;;;;;;;0.00;0.00;;;11.60;99.90;;;;;;6163335;23;19923;-88
2023/01/02 02:50:12;;;;;;;;;;;;;;;;;;;;;
2023/01/02 02:53:15;;;;;;;;;;;;;;;;;;;;;
2023/01/02 02:56:07;;;;;;;;;;;;;;;;;;;;;
2023/01/02 02:58:53;;;;;;;;;;;;;;;;;;;;;
2023/01/02 03:01:33;;;;;;;0.50;0.47;;;11.60;99.90;;;;;;6162095;23;20013;-89
2023/01/02 03:04:09;;;;;;;;;;;;;;;;;;;;;
2023/01/02 03:07:58;;;;;;;0.25;0.08;;;11.60;99.90;;;;;;6161637;23;20024;-89
2023/01/02 03:10:33;;;;;;;0.00;0.00;;;11.60;99.90;;;;;;6144420;23;20021;-89
2023/01/02 03:13:26;;;;;;;0.00;0.00;;;11.50;99.90;;;;;;6162240;23;20013;-89
2023/01/02 03:16:02;;;;;;;0.00;0.00;;;11.60;99.90;;;;;;6138205;23;20082;-90
2023/01/02 03:18:54;;;;;;;1.20;0.10;;;11.60;99.90;;;;;;6138191;23;20019;-89
2023/01/02 03:21:58;;;;;;;0.08;0.00;;;11.60;99.90;;;;;;6068929;23;20025;-89
2023/01/02 03:24:29;;;;;;;0.10;0.10;;;11.60;99.90;;;;;;6136989;23;20021;-89
2023/01/02 03:27:10;;;;;;;1.02;0.47;;;11.60;99.90;;;;;;6137289;23;20013;-88
2023/01/02 03:29:47;;;;;;;0.35;0.00;;;11.60;99.90;;;;;;6136401;23;20021;-89
2023/01/02 03:32:24;;;;;;;0.00;0.00;;;11.60;99.90;;;;;;6137503;23;20386;-88
2023/01/02 03:35:03;;;;;;;0.00;0.00;;;11.50;99.90;;;;;;6137251;23;20021;-89
2023/01/02 03:37:35;;;;;;;0.00;0.00;;;11.50;99.90;;;;;;6137501;23;20358;-88
2023/01/02 03:40:07;;;;;;;0.28;0.28;;;11.60;99.90;;;;;;6136744;23;20017;-88
2023/01/02 03:42:48;;;;;;;0.43;0.00;;;11.60;99.90;;;;;;6136517;23;20066;-88
2023/01/02 03:45:26;;;;;;;0.03;0.03;;;11.60;99.90;;;;;;6136899;23;20448;-89
2023/01/02 03:48:09;;;;;;;0.08;0.08;;;11.60;99.90;;;;;;6136796;23;20017;-88
2023/01/02 03:51:11;;;;;;;0.57;0.03;;;11.60;99.90;;;;;;6137258;23;20021;-88
2023/01/02 03:53:55;;;;;;;;;;;;;;;;;;;;;
2023/01/02 03:56:42;;;;;;;1.80;0.43;;;11.60;99.90;;;;;;6140463;23;20017;-88
2023/01/02 03:59:38;;;;;;;0.00;0.00;;;11.60;99.90;;;;;;6137103;23;20253;-90
2023/01/02 04:02:36;;;;;;;0.43;0.43;;;11.60;99.90;;;;;;6137056;23;20017;-87
2023/01/02 04:05:40;;;;;;;4.97;1.02;;;11.60;99.90;;;;;;6161000;23;20013;-87
2023/01/02 04:08:30;;;;;;;0.00;0.00;;;11.60;99.90;;;;;;6136566;23;20017;-88
2023/01/02 04:11:04;;;;;;;2.40;0.80;;;11.60;99.90;;;;;;6136789;23;20474;-88
2023/01/02 04:14:03;;;;;;;0.93;0.35;;;11.60;99.90;;;;;;6137478;23;20044;-88
2023/01/02 04:17:07;;;;;;;;;;;;;;;;;;;;;
2023/01/02 04:19:50;;;;;;;0.85;0.55;;;11.70;99.90;;;;;;6160817;23;20523;-88
2023/01/02 04:22:51;;;;;;;0.00;0.00;;;11.70;99.90;;;;;;6136219;23;20020;-89
2023/01/02 04:25:51;;;;;;;0.10;0.00;;;11.70;99.90;;;;;;6125270;23;20028;-89
2023/01/02 04:28:48;;;;;;;0.20;0.10;;;11.80;99.90;;;;;;6137055;23;20023;-88
2023/01/02 04:34:35;;;;;;;;;;;;;;;;;;;;;
2023/01/02 04:43:28;;;;;;;0.00;0.00;;;11.80;99.90;;;;;;6161380;23;20040;-89
2023/01/02 04:46:27;;;;;;;;;;;;;;;;;;;;;
2023/01/02 04:49:26;;;;;;;;;;;;;;;;;;;;;
2023/01/02 04:52:22;;;;;;;;;;;;;;;;;;;;;
2023/01/02 04:55:41;;;;;;;;;;;;;;;;;;;;;
2023/01/02 04:58:36;;;;;;;0.22;0.15;;;11.90;99.90;;;;;;6159820;23;20016;-89
2023/01/02 05:01:58;;;;;;;;;;;;;;;;;;;;;
2023/01/02 05:05:04;;;;;;;3.00;0.43;;;11.90;99.90;;;;;;6161233;23;20017;-89
2023/01/02 05:10:49;;;;;;;0.10;0.10;;;11.90;99.90;;;;;;6092575;23;20486;-89
2023/01/02 05:13:35;;;;;;;0.00;0.00;;;11.90;99.90;;;;;;6160685;23;20491;-90
2023/01/02 05:16:06;;;;;;;0.00;0.00;;;11.90;99.90;;;;;;6113480;23;20517;-88
2023/01/02 05:18:40;;;;;;;0.35;0.25;;;11.90;99.90;;;;;;6161241;23;20067;-89
2023/01/02 05:24:04;;;;;;;0.00;0.00;;;12.10;99.90;;;;;;6160985;23;20116;-87
2023/01/02 05:27:01;;;;;;;0.00;0.00;;;12.00;99.90;;;;;;6135529;23;20021;-89
2023/01/02 05:29:34;;;;;;;0.00;0.00;;;11.90;99.90;;;;;;6111894;23;20439;-89
2023/01/02 05:32:09;;;;;;;0.30;0.15;;;11.90;99.90;;;;;;6136481;23;20017;-90
2023/01/02 05:34:49;;;;;;;0.00;0.00;;;12.00;99.90;;;;;;6136172;23;20021;-88
2023/01/02 05:37:30;;;;;;;0.13;0.10;;;12.00;99.90;;;;;;6113619;23;20045;-88
2023/01/02 05:40:12;;;;;;;0.82;0.35;;;12.00;99.90;;;;;;6161137;23;20456;-90
2023/01/02 05:42:48;;;;;;;0.10;0.10;;;12.00;99.90;;;;;;6114959;23;20021;-90
2023/01/02 05:45:47;;;;;;;0.03;0.00;;;12.00;99.90;;;;;;6136549;23;20017;-89
2023/01/02 05:48:20;;;;;;;0.08;0.08;;;12.00;99.90;;;;;;6115962;23;20448;-90
2023/01/02 05:50:49;;;;;;;0.10;0.00;;;11.90;99.90;;;;;;6090375;23;20017;-90
2023/01/02 05:53:40;;;;;;;6.63;1.40;;;12.00;99.90;;;;;;6160564;23;20071;-89
2023/01/02 05:56:22;;;;;;;;;;;;;;;;;;;;;
2023/01/02 05:59:06;;;;;;;;;;;;;;;;;;;;;
2023/01/02 06:01:44;;;;;;;2.55;0.77;;;12.00;99.90;;;;;;6138863;23;20013;-89
2023/01/02 06:04:23;;;;;;;;;;;;;;;;;;;;;
2023/01/02 06:06:52;;;;;;;0.00;0.00;;;12.00;99.90;;;;;;6160744;23;20210;-88
2023/01/02 06:09:27;;;;;;;0.00;0.00;;;12.00;99.90;;;;;;6112140;23;20379;-89
2023/01/02 06:12:30;;;;;;;;;;;;;;;;;;;;;
2023/01/02 06:15:04;;;;;;;0.00;0.00;;;12.00;99.90;;;;;;6160370;23;20024;-88
2023/01/02 06:17:42;;;;;;;;;;;;;;;;;;;;;
2023/01/02 06:20:17;;;;;;;0.90;0.63;;;12.00;99.90;;;;;;6160747;23;20024;-88
2023/01/02 06:22:46;;;;;;;0.00;0.00;;;12.00;99.90;;;;;;6113229;23;20049;-89
2023/01/02 06:25:20;;;;;;;0.00;0.00;;;12.00;99.90;;;;;;6137544;23;20067;-88
2023/01/02 06:27:51;;;;;;;0.00;0.00;;;12.00;99.90;;;;;;6137657;23;20024;-88
2023/01/02 06:30:39;;;;;;;0.08;0.08;;;12.00;99.90;;;;;;6162429;23;20020;-88
2023/01/02 06:33:16;;;;;;;0.00;0.00;;;12.10;99.90;;;;;;6138850;23;20021;-89
2023/01/02 06:36:22;;;;;;;1.23;0.35;;;12.10;99.90;;;;;;6138364;23;20021;-89
2023/01/02 06:38:56;;;;;;;4.95;0.52;;;12.10;99.90;;;;;;6138949;23;20521;-89
2023/01/02 06:41:25;;;;;;;0.10;0.10;;;12.10;99.90;;;;;;6150651;23;20024;-88
2023/01/02 06:44:24;;;;;;;0.10;0.10;;;12.10;99.90;;;;;;6164355;23;20016;-88
2023/01/02 06:47:19;;;;;;;;;;;;;;;;;;;;;
2023/01/02 06:49:58;;;;;;;1.98;0.43;;;12.10;99.90;;;;;;6139626;23;20017;-89
2023/01/02 06:52:41;;;;;;;0.10;0.00;;;12.10;99.90;;;;;;6138454;23;20111;-89
2023/01/02 06:55:40;;;;;;;0.10;0.10;;;12.00;99.90;;;;;;6162499;23;20049;-89
2023/01/02 06:58:19;;;;;;;0.22;0.22;;;12.10;99.90;;;;;;6114051;23;20023;-89
2023/01/02 07:00:58;;;;;;;;;;;;;;;;;;;;;
2023/01/02 07:03:57;;;;;;;0.00;0.00;;;12.10;99.90;;;;;;6140357;23;20072;-89
2023/01/02 07:06:47;;;;;;;;;;;;;;;;;;;;;
2023/01/02 07:09:33;;;;;;;;;;;;;;;;;;;;;
2023/01/02 07:12:03;;;;;;;0.00;0.00;;;12.00;99.90;;;;;;6140565;23;20310;-88
2023/01/02 07:14:33;;;;;;;0.00;0.00;;;12.00;99.90;;;;;;6161439;23;20021;-88
2023/01/02 07:17:15;;;;;;;;;;;;;;;;;;;;;
2023/01/02 07:19:43;;;;;;;0.00;0.00;;;12.00;99.90;;;;;;6139644;23;20475;-85
2023/01/02 07:22:12;;;;;;;0.00;0.00;;;12.00;99.90;;;;;;6160492;23;20017;-84
2023/01/02 07:27:31;;;;;;;0.10;0.10;;;12.00;99.90;;;;;;6162254;23;20080;-86
2023/01/02 07:30:03;;;;;;;0.03;0.03;;;12.00;99.90;;;;;;6136057;23;20056;-90
2023/01/02 07:32:38;;;;;;;0.10;0.00;;;11.90;99.90;;;;;;6135811;23;20024;-87
2023/01/02 07:35:18;;;;;;;0.13;0.13;;;11.80;99.90;;;;;;6160971;23;20471;-88
2023/01/02 07:37:55;;;;;;;0.35;0.15;;;11.70;99.90;;;;;;6137590;23;20017;-88
2023/01/02 07:40:24;;;;;;;0.00;0.00;;;11.50;99.90;;;;;;6137144;23;20063;-89
2023/01/02 07:42:50;;;;;;;0.00;0.00;;;11.40;99.90;;;;;;6136456;23;20025;-89
2023/01/02 07:45:35;;;;;;;0.00;0.00;;;11.30;99.90;;;;;;6137207;23;20071;-90
2023/01/02 07:48:31;;;;;;;;;;;;;;;;;;;;;
2023/01/02 08:24:35;;;;;;;;;;;;;;;;;;;;;
2023/01/02 08:31:52;;;;;;;;;;;;;;;;;;;;;
2023/01/02 08:35:35;;;;;;;0.00;0.00;;;10.30;99.90;;;;;;6218280;23;20028;-93
2023/01/02 08:38:07;;;;;;;0.00;0.00;;;10.20;99.90;;;;;;6216898;23;20079;-96
2023/01/02 08:43:55;;;;;;;0.20;0.20;;;10.10;99.90;;;;;;6175477;23;20023;-93
2023/01/02 08:47:19;;;;;;;0.00;0.00;;;10.10;99.90;;;;;;6214330;23;20016;-96
2023/01/02 08:50:03;;;;;;;0.80;0.20;;;10.10;99.90;;;;;;6188054;23;20024;-93
2023/01/02 08:56:30;;;;;;;0.00;0.00;;;10.00;99.90;;;;;;6105029;23;20048;-92
2023/01/02 08:59:32;;;;;;;;;;;;;;;;;;;;;
2023/01/02 09:02:33;;;;;;;0.52;0.28;;;9.90;99.90;;;;;;6227993;23;20099;-92
2023/01/02 09:05:53;;;;;;;0.13;0.13;;;9.80;99.90;;;;;;6172675;23;20543;-92
2023/01/02 09:09:24;;;;;;;0.00;0.00;;;9.80;99.90;;;;;;6230224;23;20509;-91
2023/01/02 09:11:55;;;;;;;0.00;0.00;;;9.80;99.90;;;;;;6230855;23;20442;-92
2023/01/02 09:21:49;;;;;;;0.00;0.00;;;9.70;99.90;;;;;;6256346;23;20020;-92
2023/01/02 09:28:05;;;;;;;;;;;;;;;;;;;;;
2023/01/02 09:31:33;;;;;;;;;;;;;;;;;;;;;
2023/01/02 09:35:11;;;;;;;;;;;;;;;;;;;;;
2023/01/02 09:48:46;;;;;;;;;;;;;;;;;;;;;
2023/01/02 09:58:46;;;;;;;;;;;;;;;;;;;;;
2023/01/02 10:02:28;;;;;;;;;;;;;;;;;;;;;
2023/01/02 10:05:09;;;;;;;0.00;0.00;;;9.50;99.90;;;;;;5996284;23;20390;-91
2023/01/02 10:08:00;;;;;;;;;;;;;;;;;;;;;
2023/01/02 10:10:51;;;;;;;;;;;;;;;;;;;;;
2023/01/02 10:13:32;;;;;;;0.00;0.00;;;9.50;99.90;;;;;;6216599;23;20017;-92
2023/01/02 10:16:37;;;;;;;;;;;;;;;;;;;;;
2023/01/02 10:20:04;;;;;;;;;;;;;;;;;;;;;
2023/01/02 10:26:02;;;;;;;0.00;0.00;;;9.60;99.90;;;;;;6196145;23;20354;-90
2023/01/02 10:40:20;;;;;;;;;;;;;;;;;;;;;
2023/01/02 10:48:35;;;;;;;;;;;;;;;;;;;;;
2023/01/02 11:03:40;;;;;;;0.00;0.00;;;9.60;99.90;;;;;;6196982;23;20390;-91
2023/01/02 11:13:36;;;;;;;;;;;;;;;;;;;;;
2023/01/02 11:20:12;;;;;;;0.38;0.28;;;9.80;99.90;;;;;;6240858;23;20150;-90
2023/01/02 11:23:33;;;;;;;0.00;0.00;;;9.80;99.90;;;;;;6220412;23;20508;-90
2023/01/02 11:26:21;;;;;;;0.00;0.00;;;9.80;99.90;;;;;;6196825;23;20051;-92
2023/01/02 11:32:52;;;;;;;;;;;;;;;;;;;;;
2023/01/02 11:35:45;;;;;;;0.00;0.00;;;9.90;99.90;;;;;;6222196;23;20023;-91
2023/01/02 11:38:25;;;;;;;0.00;0.00;;;9.90;99.90;;;;;;6197203;23;20016;-92
2023/01/02 11:41:10;;;;;;;;;;;;;;;;;;;;;
2023/01/02 11:43:49;;;;;;;0.00;0.00;;;9.90;99.90;;;;;;6223492;23;20040;-93
2023/01/02 11:46:35;;;;;;;0.00;0.00;;;9.90;99.90;;;;;;6197631;23;20016;-91
2023/01/02 11:49:40;;;;;;;0.00;0.00;;;9.90;99.90;;;;;;6223149;23;20099;-91
2023/01/02 11:52:24;;;;;;;0.03;0.00;;;9.90;99.90;;;;;;6150802;23;20019;-92
2023/01/02 11:55:17;;;;;;;0.00;0.00;;;9.90;99.90;;;;;;6222570;23;20019;-91
2023/01/02 11:58:05;;;;;;;0.05;0.00;;;9.90;99.90;;;;;;6197947;23;20449;-92
2023/01/02 12:00:42;;;;;;;0.00;0.00;;;9.80;99.90;;;;;;6197092;23;20023;-92
2023/01/02 12:03:18;;;;;;;0.00;0.00;;;9.90;99.90;;;;;;6196348;23;20020;-92
2023/01/02 12:06:04;;;;;;;0.00;0.00;;;9.80;99.90;;;;;;6198581;23;20032;-92
2023/01/02 12:08:40;;;;;;;;;;;9.80;99.90;;;;;;6198842;23;20081;-93
2023/01/02 12:11:47;;;;;;;0.25;0.00;;;9.90;99.90;;;;;;6196852;23;19987;-92
2023/01/02 12:14:58;;;;;;;0.60;0.03;;;10.10;99.90;;;;;;6196791;23;20051;-91
2023/01/02 12:17:36;;;;;;;0.00;0.00;;;10.10;99.90;;;;;;6197058;23;20031;-92
2023/01/02 12:20:39;;;;;;;4.65;0.80;;;10.00;99.90;;;;;;6197219;23;20023;-91
2023/01/02 12:23:40;;;;;;;;;;;;;;;;;;;;;
2023/01/02 12:26:31;;;;;;;;;;;;;;;;;;;;;
2023/01/02 12:29:44;;;;;;;0.03;0.00;;;9.90;99.90;;;;;;6222105;23;20338;-92
2023/01/02 12:32:39;;;;;;;0.03;0.03;;;10.00;99.90;;;;;;6211172;23;20043;-91
2023/01/02 12:35:40;;;;;;;0.00;0.00;;;10.00;99.90;;;;;;6222418;23;20086;-92
2023/01/02 12:38:24;;;;;;;;;;;10.00;99.90;;;;;;6142377;23;20099;-92
2023/01/02 12:41:14;;;;;;;0.00;0.00;;;10.00;99.90;;;;;;6197516;23;20314;-93
2023/01/02 12:43:42;;;;;;;0.00;0.00;;;9.90;99.90;;;;;;6197765;23;20016;-92
2023/01/02 12:46:43;;;;;;;0.00;0.00;;;9.90;99.90;;;;;;6198524;23;20043;-92
2023/01/02 12:49:28;;;;;;;0.00;0.00;;;9.90;99.90;;;;;;6163591;23;20016;-92
2023/01/02 12:52:37;;;;;;;0.00;0.00;;;9.80;99.90;;;;;;6222401;23;20486;-91
2023/01/02 12:55:54;;;;;;;;;;;;;;;;;;;;;
2023/01/02 12:58:42;;;;;;;2.03;0.80;;;9.80;99.90;;;;;;6222057;23;20004;-92
2023/01/02 13:01:42;;;;;;;0.00;0.00;;;9.80;99.90;;;;;;6199129;23;20027;-91
2023/01/02 13:04:23;;;;;;;0.10;0.10;;;9.80;99.90;;;;;;6141407;23;20352;-92
2023/01/02 13:07:13;;;;;;;0.00;0.00;;;9.80;99.90;;;;;;6164201;23;20052;-92
2023/01/02 13:09:47;;;;;;;0.00;0.00;;;9.80;99.90;;;;;;6189463;23;20019;-93
2023/01/02 13:12:31;;;;;;;0.10;0.10;;;9.80;99.90;;;;;;6189248;23;20100;-93
2023/01/02 13:15:11;;;;;;;0.00;0.00;;;9.80;99.90;;;;;;6164610;23;20072;-92
2023/01/02 13:18:02;;;;;;;0.00;0.00;;;9.80;99.90;;;;;;6164420;23;20059;-93
2023/01/02 13:21:03;;;;;;;0.00;0.00;;;9.70;99.90;;;;;;6164775;23;20100;-92
2023/01/02 13:23:50;;;;;;;0.00;0.00;;;9.70;99.90;;;;;;6052154;23;20014;-92
2023/01/02 13:26:39;;;;;;;0.00;0.00;;;9.70;99.90;;;;;;6164340;23;20013;-91
2023/01/02 13:29:10;;;;;;;0.00;0.00;;;9.70;99.90;;;;;;6125415;23;20017;-92
2023/01/02 13:31:56;;;;;;;4.85;0.57;;;9.80;99.90;;;;;;6162896;23;20071;-92
2023/01/02 13:34:31;;;;;;;0.00;0.00;;;9.70;99.90;;;;;;6164159;23;20028;-92
2023/01/02 13:37:29;;;;;;;0.00;0.00;;;9.80;99.90;;;;;;6163709;23;20021;-91
2023/01/02 13:40:09;;;;;;;;;;;;;;;;;;;;;
2023/01/02 13:45:41;;;;;;;0.00;0.00;;;9.80;99.90;;;;;;6188561;23;20021;-92
2023/01/02 13:48:23;;;;;;;0.00;0.00;;;9.90;99.90;;;;;;6160953;23;20020;-92
2023/01/02 13:51:13;;;;;;;0.10;0.10;;;9.90;99.90;;;;;;6188675;23;20017;-93
2023/01/02 13:53:47;;;;;;;0.00;0.00;;;9.80;99.90;;;;;;6186218;23;20092;-91
2023/01/02 13:56:28;;;;;;;;;;;;;;;;;;;;;
2023/01/02 13:59:20;;;;;;;0.00;0.00;;;9.80;99.90;;;;;;6186634;23;20056;-91
2023/01/02 14:02:08;;;;;;;;;;;;;;;;;;;;;
2023/01/02 14:04:48;;;;;;;0.05;0.03;;;9.80;99.90;;;;;;6223757;23;20039;-92
2023/01/02 14:07:44;;;;;;;0.00;0.00;;;9.80;99.90;;;;;;6197154;23;20342;-91
2023/01/02 14:10:26;;;;;;;;;;;9.80;99.90;;;;;;6210707;23;20019;-93
2023/01/02 14:12:59;;;;;;;0.20;0.08;;;9.80;99.90;;;;;;6227630;23;19990;-88
2023/01/02 14:15:31;;;;;;;0.00;0.00;;;9.80;99.90;;;;;;6203157;23;20446;-94
2023/01/02 14:18:07;;;;;;;0.22;0.22;;;9.80;99.90;;;;;;6200465;23;20019;-93
2023/01/02 14:20:43;;;;;;;0.00;0.00;;;9.80;99.90;;;;;;6199501;23;20052;-92
2023/01/02 14:23:46;;;;;;;;;;;;;;;;;;;;;
2023/01/02 14:26:31;;;;;;;0.00;0.00;;;9.80;99.90;;;;;;6223090;23;20019;-93
2023/01/02 14:29:05;;;;;;;0.00;0.00;;;9.70;99.90;;;;;;6198262;23;20058;-92
2023/01/02 14:31:47;;;;;;;;;;;;;;;;;;;;;
2023/01/02 14:34:28;;;;;;;0.00;0.00;;;9.70;99.90;;;;;;6201627;23;20004;-91
2023/01/02 14:37:07;;;;;;;;;;;;;;;;;;;;;
2023/01/02 14:40:03;;;;;;;;;;;;;;;;;;;;;
2023/01/02 14:45:27;;;;;;;0.00;0.00;;;9.70;99.90;;;;;;6223449;23;20023;-93
2023/01/02 14:48:20;;;;;;;;;;;;;;;;;;;;;
2023/01/02 14:50:50;;;;;;;0.17;0.17;;;9.70;99.90;;;;;;6220596;23;20018;-88
2023/01/02 14:56:28;;;;;;;1.17;1.08;;;9.60;99.90;;;;;;6220107;23;20020;-92
2023/01/02 14:59:00;;;;;;;0.00;0.00;;;9.60;99.90;;;;;;6196487;23;20388;-89
2023/01/02 15:01:42;;;;;;;0.10;0.03;;;9.60;99.90;;;;;;6223795;23;20020;-90
2023/01/02 15:04:52;;;;;;;0.00;0.00;;;9.60;99.90;;;;;;6195453;23;20024;-92
2023/01/02 15:07:30;;;;;;;0.00;0.00;;;9.60;99.90;;;;;;6117035;23;20055;-90
2023/01/02 15:10:15;;;;;;;;;;;;;;;;;;;;;
2023/01/02 15:15:44;;;;;;;0.00;0.00;;;9.50;99.90;;;;;;6246324;23;19938;-92
2023/01/02 15:18:35;;;;;;;1.98;0.52;;;9.50;99.90;;;;;;6211602;23;20016;-91
2023/01/02 15:21:07;;;;;;;0.00;0.00;;;9.50;99.90;;;;;;6197445;23;20491;-91
2023/01/02 15:23:55;;;;;;;0.05;0.00;;;9.50;99.90;;;;;;6196752;23;20019;-91
2023/01/02 15:26:23;;;;;;;0.00;0.00;;;9.40;99.90;;;;;;6198496;23;20090;-92
2023/01/02 15:29:14;;;;;;;;;;;;;;;;;;;;;
2023/01/02 15:31:56;;;;;;;0.00;0.00;;;9.50;99.90;;;;;;6202113;23;20367;-95
2023/01/02 15:34:28;;;;;;;0.40;0.00;;;9.40;99.90;;;;;;6197455;23;20458;-90
2023/01/02 15:36:55;;;;;;;0.10;0.10;;;9.40;99.90;;;;;;6196133;23;20024;-88
2023/01/02 15:39:47;;;;;;;0.98;0.15;;;9.40;99.90;;;;;;6220955;23;20473;-89
2023/01/02 15:45:13;;;;;;;0.10;0.00;;;9.30;99.90;;;;;;6220937;23;20052;-84
2023/01/02 15:48:05;;;;;;;0.00;0.00;;;9.30;99.90;;;;;;6195852;23;20450;-86
2023/01/02 15:50:31;;;;;;;0.15;0.15;;;9.30;99.90;;;;;;6220137;23;20023;-86
2023/01/02 15:53:03;;;;;;;0.10;0.10;;;9.20;99.90;;;;;;6246076;23;20012;-88
2023/01/02 15:55:38;;;;;;;0.00;0.00;;;9.10;99.90;;;;;;6195160;23;20020;-88
2023/01/02 15:58:18;;;;;;;0.00;0.00;;;9.10;99.90;;;;;;6195938;23;20027;-89
2023/01/02 16:01:12;;;;;;;0.00;0.00;;;9.10;99.90;;;;;;6221480;23;20020;-89
2023/01/02 16:03:50;;;;;;;;;;;;;;;;;;;;;
2023/01/02 16:06:30;;;;;;;0.00;0.00;;;9.00;99.90;;;;;;6221306;23;20088;-89
2023/01/02 16:09:06;;;;;;;0.00;0.00;;;8.90;99.90;;;;;;6195770;23;20020;-88
2023/01/02 16:11:44;;;;;;;0.00;0.00;;;8.90;99.90;;;;;;6220971;23;20058;-89
2023/01/02 16:14:26;;;;;;;0.00;0.00;;;8.90;99.90;;;;;;6196054;23;20016;-90
2023/01/02 16:17:13;;;;;;;0.00;0.00;;;8.90;99.90;;;;;;6196894;23;20016;-89
2023/01/02 16:20:19;;;;;;;0.00;0.00;;;8.90;99.90;;;;;;6195749;23;20017;-92
2023/01/02 16:23:01;;;;;;;0.00;0.00;;;8.90;99.90;;;;;;6194426;23;20378;-91
2023/01/02 16:25:40;;;;;;;0.00;0.00;;;8.90;99.90;;;;;;6197096;23;20021;-93
2023/01/02 16:28:18;;;;;;;0.00;0.00;;;8.90;99.90;;;;;;6197341;23;20020;-95
2023/01/02 16:31:39;;;;;;;;;;;;;;;;;;;;;
2023/01/02 16:45:19;;;;;;;0.00;0.00;;;8.80;99.90;;;;;;6139565;23;20020;-95
2023/01/02 16:48:13;;;;;;;2.05;0.47;;;8.60;99.90;;;;;;6216576;23;20103;-95
2023/01/02 17:00:23;;;;;;;0.75;0.40;;;8.60;99.90;;;;;;6207591;23;20090;-93
2023/01/02 17:03:15;;;;;;;0.00;0.00;;;8.60;99.90;;;;;;6199207;23;20023;-94
2023/01/02 17:06:14;;;;;;;0.00;0.00;;;8.50;99.90;;;;;;6195737;23;20517;-95
2023/01/02 17:08:48;;;;;;;0.00;0.00;;;8.50;99.90;;;;;;6188842;23;20027;-91
2023/01/02 17:12:08;;;;;;;;;;;;;;;;;;;;;
2023/01/02 17:17:49;;;;;;;0.10;0.00;;;8.30;99.90;;;;;;6213536;23;20012;-93
2023/01/02 17:20:32;;;;;;;0.30;0.30;;;8.20;99.90;;;;;;6145022;23;20101;-92
2023/01/02 17:23:20;;;;;;;;;;;;;;;;;;;;;
2023/01/02 17:32:03;;;;;;;;;;;;;;;;;;;;;
2023/01/02 17:34:50;;;;;;;0.00;0.00;;;8.00;99.90;;;;;;6220851;23;20653;-93
2023/01/02 17:37:24;;;;;;;0.00;0.00;;;7.90;99.90;;;;;;6194907;23;20082;-93
2023/01/02 17:40:07;;;;;;;0.28;0.28;;;7.90;99.90;;;;;;6222015;23;20066;-94
2023/01/02 17:42:46;;;;;;;0.00;0.00;;;7.80;99.90;;;;;;6198623;23;20051;-92
2023/01/02 17:45:17;;;;;;;0.00;0.00;;;7.80;99.90;;;;;;6195051;23;20081;-93
2023/01/02 17:48:02;;;;;;;;;;;;;;;;;;;;;
2023/01/02 17:50:34;;;;;;;0.00;0.00;;;7.70;99.90;;;;;;6232800;23;20035;-91
2023/01/02 17:53:05;;;;;;;0.00;0.00;;;7.60;99.90;;;;;;6199547;23;20450;-93
2023/01/02 17:55:37;;;;;;;0.00;0.00;;;7.60;99.90;;;;;;6197506;23;20058;-94
2023/01/02 17:58:24;;;;;;;;;;;;;;;;;;;;;
2023/01/02 18:00:59;;;;;;;0.00;0.00;;;7.50;99.90;;;;;;6202576;23;20016;-94
2023/01/02 18:03:28;;;;;;;0.00;0.00;;;7.50;99.90;;;;;;6173774;23;20303;-93
2023/01/02 18:06:10;;;;;;;0.00;0.00;;;7.40;99.90;;;;;;6195336;23;20024;-93
2023/01/02 18:11:41;;;;;;;0.00;0.00;;;7.40;99.90;;;;;;6208494;23;20347;-93
2023/01/02 18:14:45;;;;;;;0.10;0.00;;;7.30;99.90;;;;;;6170774;23;20018;-92
2023/01/02 18:17:37;;;;;;;0.00;0.00;;;7.30;99.90;;;;;;6189076;23;20027;-94
2023/01/02 18:20:44;;;;;;;0.00;0.00;;;7.20;99.90;;;;;;6195795;23;20069;-93
2023/01/02 18:23:55;;;;;;;;;;;;;;;;;;;;;
2023/01/02 18:38:01;;;;;;;0.10;0.10;;;6.90;99.90;;;;;;6111442;23;20016;-96
2023/01/02 18:45:17;;;;;;;;;;;;;;;;;;;;;
2023/01/02 18:58:53;;;;;;;0.57;0.10;;;6.60;99.90;;;;;;6170463;23;20045;-91
2023/01/02 19:02:01;;;;;;;;;;;;;;;;;;;;;
2023/01/02 19:05:13;;;;;;;5.28;1.45;;;6.50;99.90;;;;;;6215652;23;20504;-92
2023/01/02 19:07:57;;;;;;;0.45;0.45;;;6.40;99.90;;;;;;6198103;23;20019;-93
2023/01/02 19:10:42;;;;;;;0.38;0.00;;;6.40;99.90;;;;;;6201858;23;20019;-92
2023/01/02 19:13:32;;;;;;;0.45;0.20;;;6.40;99.90;;;;;;6198087;23;20012;-92
2023/01/02 19:16:01;;;;;;;0.13;0.13;;;6.40;99.90;;;;;;6196027;23;20020;-93
2023/01/02 19:18:49;;;;;;;;;;;;;;;;;;;;;
2023/01/02 19:21:26;;;;;;;0.00;0.00;;;6.30;99.90;;;;;;6240197;23;20027;-93
2023/01/02 19:24:46;;;;;;;0.65;0.65;;;6.30;99.90;;;;;;6211281;23;20039;-92
2023/01/02 19:27:43;;;;;;;0.00;0.00;;;6.20;99.90;;;;;;6244724;22;20035;-94
2023/01/02 19:31:41;;;;;;;0.05;0.00;;;6.20;99.90;;;;;;6191116;23;20016;-93
2023/01/02 19:34:26;;;;;;;0.10;0.10;;;6.30;99.90;;;;;;6215442;23;20026;-92
2023/01/02 19:37:43;;;;;;;0.40;0.03;;;6.10;99.90;;;;;;6219989;23;20022;-92
2023/01/02 19:40:12;;;;;;;0.00;0.00;;;6.10;99.90;;;;;;6198532;23;20039;-91
2023/01/02 19:42:46;;;;;;;0.10;0.10;;;6.10;99.90;;;;;;6198569;22;20016;-93
2023/01/02 19:45:34;;;;;;;0.00;0.00;;;6.10;99.90;;;;;;6198026;23;20133;-92
2023/01/02 19:48:02;;;;;;;;;;;6.10;99.90;;;;;;6197961;23;20020;-92
2023/01/02 19:50:47;;;;;;;;;;;;;;;;;;;;;
2023/01/02 19:53:24;;;;;;;3.40;0.98;;;6.10;99.90;;;;;;6221969;23;20012;-93
2023/01/02 19:56:06;;;;;;;0.00;0.00;;;6.10;99.90;;;;;;6197134;23;20020;-92
2023/01/02 19:58:44;;;;;;;;;;;;;;;;;;;;;
2023/01/02 20:01:24;;;;;;;0.00;0.00;;;6.10;99.90;;;;;;6222287;23;20095;-92
2023/01/02 20:03:52;;;;;;;0.00;0.00;;;6.10;99.90;;;;;;6174775;23;20022;-91
2023/01/02 20:06:27;;;;;;;0.00;0.00;;;6.00;99.90;;;;;;6197437;23;20023;-92
2023/01/02 20:08:58;;;;;;;0.22;0.22;;;6.00;99.90;;;;;;6174413;23;20020;-92
2023/01/02 20:14:31;;;;;;;;;;;;;;;;;;;;;
2023/01/02 20:20:41;;;;;;;;;;;;;;;;;;;;;